createdAt,value
2019-02-23T00:01:48.342Z,6.70
2019-02-23T00:04:17.414Z,6.60
2019-02-23T00:06:46.519Z,5.60
2019-02-23T00:09:15.791Z,7.43
2019-02-23T00:11:50.152Z,6.67
2019-02-23T00:14:19.290Z,7.63
2019-02-23T00:16:49.500Z,6.67
2019-02-23T00:19:24.898Z,7.13
2019-02-23T00:21:52.223Z,6.63
2019-02-23T00:24:21.348Z,7.17
2019-02-23T00:26:53.353Z,8.30
2019-02-23T00:29:30.582Z,6.73
2019-02-23T00:31:59.712Z,6.40
2019-02-23T00:34:34.119Z,8.23
2019-02-23T00:37:03.244Z,5.50
2019-02-23T00:39:37.239Z,6.40
2019-02-23T00:42:08.552Z,6.10
2019-02-23T00:44:45.863Z,7.30
2019-02-23T00:47:15.076Z,7.03
2019-02-23T00:49:45.123Z,6.60
2019-02-23T00:52:14.240Z,6.00
2019-02-23T00:54:44.675Z,5.67
2019-02-23T00:57:16.026Z,7.17
2019-02-23T00:59:48.086Z,7.37
2019-02-23T01:02:23.128Z,6.30
2019-02-23T01:04:54.985Z,6.60
2019-02-23T01:07:24.489Z,6.43
2019-02-23T01:09:55.331Z,5.93
2019-02-23T01:12:28.191Z,6.80
2019-02-23T01:15:01.123Z,7.10
2019-02-23T01:17:31.765Z,6.47
2019-02-23T01:20:00.871Z,6.30
2019-02-23T01:22:30.263Z,6.60
2019-02-23T01:24:59.385Z,6.47
2019-02-23T01:27:28.479Z,6.10
2019-02-23T01:30:02.258Z,6.07
2019-02-23T01:32:31.091Z,5.40
2019-02-23T01:35:00.300Z,5.23
2019-02-23T01:37:29.404Z,5.83
2019-02-23T01:39:58.560Z,6.90
2019-02-23T01:42:31.090Z,6.37
2019-02-23T01:45:02.759Z,7.10
2019-02-23T01:47:31.996Z,6.03
2019-02-23T01:50:03.952Z,5.43
2019-02-23T01:52:36.946Z,6.80
2019-02-23T01:55:08.193Z,6.83
2019-02-23T01:57:40.230Z,6.60
2019-02-23T02:00:21.246Z,5.17
2019-02-23T02:02:50.364Z,6.90
2019-02-23T02:05:19.448Z,5.27
2019-02-23T02:07:54.380Z,6.23
2019-02-23T02:10:21.136Z,6.17
2019-02-23T02:12:52.312Z,6.70
2019-02-23T02:15:25.330Z,6.13
2019-02-23T02:17:57.015Z,6.97
2019-02-23T02:20:31.074Z,6.30
2019-02-23T02:23:02.892Z,7.27
2019-02-23T02:25:33.507Z,7.97
2019-02-23T02:28:02.622Z,6.47
2019-02-23T02:30:31.735Z,6.83
2019-02-23T02:33:00.868Z,7.20
2019-02-23T02:35:31.114Z,8.40
2019-02-23T02:38:10.871Z,7.40
2019-02-23T02:40:46.738Z,6.67
2019-02-23T02:43:15.957Z,7.37
2019-02-23T02:45:45.424Z,6.60
2019-02-23T02:48:16.268Z,7.20
2019-02-23T02:50:46.553Z,7.20
2019-02-23T02:53:15.658Z,6.40
2019-02-23T02:55:47.850Z,7.40
2019-02-23T02:58:18.688Z,6.53
2019-02-23T03:00:47.779Z,6.60
2019-02-23T03:03:18.446Z,7.33
2019-02-23T03:05:47.523Z,7.53
2019-02-23T03:08:17.751Z,7.83
2019-02-23T03:10:46.822Z,7.83
2019-02-23T03:13:21.501Z,8.00
2019-02-23T03:15:54.667Z,7.80
2019-02-23T03:18:23.763Z,7.53
2019-02-23T03:20:53.214Z,7.20
2019-02-23T03:23:26.813Z,7.97
2019-02-23T03:25:57.686Z,8.57
2019-02-23T03:28:35.932Z,6.80
2019-02-23T03:31:05.358Z,7.63
2019-02-23T03:33:38.392Z,8.17
2019-02-23T03:36:09.672Z,7.53
2019-02-23T03:38:39.119Z,7.73
2019-02-23T03:41:29.339Z,8.43
2019-02-23T03:43:59.165Z,8.13
2019-02-23T03:46:28.402Z,8.10
2019-02-23T03:48:57.536Z,8.90
2019-02-23T03:51:26.609Z,6.77
2019-02-23T03:53:57.619Z,8.20
2019-02-23T03:56:27.100Z,8.17
2019-02-23T03:58:56.229Z,7.93
2019-02-23T04:01:27.077Z,7.33
2019-02-23T04:03:57.574Z,7.73
2019-02-23T04:06:29.800Z,8.33
2019-02-23T04:08:58.937Z,8.50
2019-02-23T04:11:28.102Z,8.60
2019-02-23T04:13:57.182Z,7.97
2019-02-23T04:16:27.199Z,7.30
2019-02-23T04:18:56.458Z,7.53
2019-02-23T04:21:25.561Z,7.60
2019-02-23T04:23:56.885Z,8.40
2019-02-23T04:26:26.447Z,7.60
2019-02-23T04:28:56.854Z,8.10
2019-02-23T04:31:30.884Z,8.37
2019-02-23T04:34:07.543Z,8.03
2019-02-23T04:36:36.659Z,8.60
2019-02-23T04:39:15.986Z,7.23
2019-02-23T04:41:45.081Z,7.73
2019-02-23T04:44:16.939Z,7.73
2019-02-23T04:46:48.714Z,8.43
2019-02-23T04:49:18.211Z,7.77
2019-02-23T04:51:49.502Z,8.57
2019-02-23T04:54:21.605Z,6.63
2019-02-23T04:56:51.357Z,7.00
2019-02-23T04:59:20.590Z,6.90
2019-02-23T05:01:50.585Z,7.07
2019-02-23T05:04:25.288Z,8.40
2019-02-23T05:06:54.454Z,8.60
2019-02-23T05:09:23.961Z,6.70
2019-02-23T05:11:53.223Z,6.67
2019-02-23T05:14:25.119Z,9.67
2019-02-23T05:16:55.349Z,7.53
2019-02-23T05:19:24.914Z,9.50
2019-02-23T05:21:53.980Z,7.13
2019-02-23T05:24:24.768Z,8.20
2019-02-23T05:26:53.882Z,8.03
2019-02-23T05:29:23.015Z,8.30
2019-02-23T05:31:52.090Z,8.90
2019-02-23T05:34:23.147Z,8.13
2019-02-23T05:36:52.299Z,8.40
2019-02-23T05:39:21.374Z,8.20
2019-02-23T05:41:53.081Z,9.90
2019-02-23T05:44:22.207Z,8.40
2019-02-23T05:46:53.259Z,8.57
2019-02-23T05:49:22.467Z,9.40
2019-02-23T05:51:53.353Z,9.30
2019-02-23T05:54:22.497Z,10.30
2019-02-23T05:57:01.490Z,9.73
2019-02-23T05:59:40.719Z,8.30
2019-02-23T06:02:09.833Z,8.23
2019-02-23T06:04:49.043Z,8.93
2019-02-23T06:07:09.907Z,9.93
2019-02-23T06:09:38.990Z,7.73
2019-02-23T06:12:08.367Z,8.73
2019-02-23T06:14:42.952Z,9.03
2019-02-23T06:17:13.361Z,9.60
2019-02-23T06:19:42.481Z,9.97
2019-02-23T06:22:13.715Z,8.90
2019-02-23T06:24:51.294Z,7.37
2019-02-23T06:27:20.363Z,9.40
2019-02-23T06:29:49.490Z,9.07
2019-02-23T06:32:20.277Z,9.53
2019-02-23T06:34:54.551Z,11.10
2019-02-23T06:37:23.663Z,8.77
2019-02-23T06:39:53.128Z,11.03
2019-02-23T06:42:22.241Z,9.90
2019-02-23T06:44:51.541Z,10.20
2019-02-23T06:47:23.913Z,7.77
2019-02-23T06:49:55.189Z,9.00
2019-02-23T06:52:24.052Z,11.63
2019-02-23T06:54:53.179Z,10.90
2019-02-23T06:57:23.393Z,10.43
2019-02-23T06:59:53.374Z,11.03
2019-02-23T07:02:24.095Z,11.37
2019-02-23T07:04:56.192Z,9.60
2019-02-23T07:07:25.327Z,10.17
2019-02-23T07:09:54.699Z,9.90
2019-02-23T07:12:28.100Z,11.43
2019-02-23T07:14:57.420Z,11.90
2019-02-23T07:17:28.219Z,10.83
2019-02-23T07:19:57.411Z,10.77
2019-02-23T07:22:26.754Z,9.97
2019-02-23T07:24:56.138Z,11.20
2019-02-23T07:27:26.339Z,11.83
2019-02-23T07:29:59.115Z,10.53
2019-02-23T07:32:28.309Z,11.17
2019-02-23T07:34:58.710Z,11.10
2019-02-23T07:37:32.465Z,11.57
2019-02-23T07:40:02.869Z,9.67
2019-02-23T07:42:43.957Z,11.10
2019-02-23T07:45:19.162Z,11.13
2019-02-23T07:47:48.369Z,11.90
2019-02-23T07:50:17.467Z,10.63
2019-02-23T07:52:50.057Z,10.90
2019-02-23T07:55:17.753Z,10.90
2019-02-23T07:57:47.053Z,11.70
2019-02-23T08:00:19.820Z,10.93
2019-02-23T08:02:48.919Z,9.43
2019-02-23T08:05:21.670Z,11.00
2019-02-23T08:07:55.846Z,11.07
2019-02-23T08:10:29.358Z,11.53
2019-02-23T08:13:00.163Z,10.97
2019-02-23T08:15:29.271Z,10.83
2019-02-23T08:17:59.972Z,11.37
2019-02-23T08:20:29.140Z,11.50
2019-02-23T08:22:58.263Z,11.40
2019-02-23T08:25:28.907Z,12.60
2019-02-23T08:27:58.767Z,11.93
2019-02-23T08:30:32.790Z,14.23
2019-02-23T08:33:06.445Z,11.40
2019-02-23T08:35:37.147Z,11.60
2019-02-23T08:38:06.570Z,12.33
2019-02-23T08:40:36.041Z,11.73
2019-02-23T08:43:10.079Z,12.60
2019-02-23T08:45:39.199Z,11.53
2019-02-23T08:48:08.294Z,11.60
2019-02-23T08:50:41.877Z,11.53
2019-02-23T08:53:14.491Z,12.53
2019-02-23T08:55:48.201Z,10.93
2019-02-23T08:58:19.956Z,11.70
2019-02-23T09:00:49.470Z,13.07
2019-02-23T09:03:25.233Z,13.07
2019-02-23T09:05:54.337Z,10.77
2019-02-23T09:08:23.673Z,12.80
2019-02-23T09:10:53.691Z,12.40
2019-02-23T09:13:23.815Z,11.33
2019-02-23T09:16:01.447Z,12.03
2019-02-23T09:18:34.929Z,11.30
2019-02-23T09:21:06.652Z,11.60
2019-02-23T09:23:41.935Z,11.40
2019-02-23T09:26:11.154Z,11.50
2019-02-23T09:28:40.334Z,12.47
2019-02-23T09:31:10.249Z,11.10
2019-02-23T09:33:41.266Z,9.63
2019-02-23T09:36:10.360Z,11.20
2019-02-23T09:38:39.460Z,10.80
2019-02-23T09:41:09.681Z,11.13
2019-02-23T09:43:39.172Z,11.07
2019-02-23T09:46:08.583Z,9.23
2019-02-23T09:48:39.395Z,9.13
2019-02-23T09:51:09.371Z,10.10
2019-02-23T09:53:40.239Z,8.40
2019-02-23T09:56:17.262Z,10.00
2019-02-23T09:58:49.634Z,9.30
2019-02-23T10:01:19.060Z,9.57
2019-02-23T10:03:53.013Z,9.43
2019-02-23T10:06:23.538Z,9.40
2019-02-23T10:08:58.776Z,9.50
2019-02-23T10:11:28.003Z,10.63
2019-02-23T10:13:57.255Z,9.80
2019-02-23T10:16:30.282Z,9.00
2019-02-23T10:19:00.540Z,8.30
2019-02-23T10:21:34.572Z,9.40
2019-02-23T10:24:04.776Z,9.30
2019-02-23T10:26:34.281Z,9.20
2019-02-23T10:29:03.830Z,9.07
2019-02-23T10:31:33.175Z,9.27
2019-02-23T10:34:02.997Z,8.43
2019-02-23T10:36:36.123Z,7.87
2019-02-23T10:39:06.111Z,8.20
2019-02-23T10:41:36.967Z,8.43
2019-02-23T10:44:07.689Z,8.10
2019-02-23T10:46:36.915Z,8.03
2019-02-23T10:49:06.728Z,7.20
2019-02-23T10:51:35.898Z,7.57
2019-02-23T10:54:07.594Z,6.77
2019-02-23T10:56:39.018Z,7.97
2019-02-23T10:59:08.276Z,7.87
2019-02-23T11:01:38.464Z,6.80
2019-02-23T11:04:10.404Z,9.33
2019-02-23T11:06:40.745Z,8.57
2019-02-23T11:09:17.759Z,7.70
2019-02-23T11:11:48.444Z,7.87
2019-02-23T11:14:18.921Z,6.97
2019-02-23T11:16:48.018Z,7.47
2019-02-23T11:19:18.701Z,7.13
2019-02-23T11:21:48.120Z,6.83
2019-02-23T11:24:18.373Z,7.40
2019-02-23T11:26:50.791Z,7.97
2019-02-23T11:29:20.163Z,8.20
2019-02-23T11:31:49.389Z,7.37
2019-02-23T11:34:24.978Z,6.50
2019-02-23T11:36:54.187Z,7.07
2019-02-23T11:39:26.513Z,6.70
2019-02-23T11:41:59.994Z,7.07
2019-02-23T11:44:33.908Z,6.53
2019-02-23T11:47:10.019Z,5.97
2019-02-23T11:49:43.140Z,5.13
2019-02-23T11:52:17.601Z,5.67
2019-02-23T11:54:49.810Z,5.87
2019-02-23T11:57:19.194Z,6.30
2019-02-23T11:59:48.428Z,5.63
2019-02-23T12:02:17.641Z,5.63
2019-02-23T12:04:47.098Z,5.30
2019-02-23T12:07:16.862Z,6.00
2019-02-23T12:09:45.999Z,6.40
2019-02-23T12:12:16.019Z,5.20
2019-02-23T12:14:46.776Z,5.70
2019-02-23T12:17:19.908Z,5.50
2019-02-23T12:19:49.038Z,5.57
2019-02-23T12:22:18.562Z,6.07
2019-02-23T12:24:50.245Z,5.10
2019-02-23T12:27:19.584Z,4.70
2019-02-23T12:29:51.429Z,4.80
2019-02-23T12:32:23.111Z,5.50
2019-02-23T12:34:56.759Z,4.87
2019-02-23T12:37:26.046Z,5.70
2019-02-23T12:39:57.903Z,5.30
2019-02-23T12:42:27.753Z,5.53
2019-02-23T12:44:59.558Z,5.00
2019-02-23T12:47:29.129Z,5.50
2019-02-23T12:49:59.253Z,5.37
2019-02-23T12:52:28.422Z,4.37
2019-02-23T12:54:59.699Z,4.93
2019-02-23T12:57:36.329Z,4.00
2019-02-23T13:00:07.978Z,4.57
2019-02-23T13:02:39.911Z,4.73
2019-02-23T13:05:09.237Z,4.10
2019-02-23T13:07:38.325Z,4.10
2019-02-23T13:10:11.518Z,3.70
2019-02-23T13:13:36.838Z,4.10
2019-02-23T13:16:30.881Z,5.43
2019-02-23T13:19:59.314Z,4.77
2019-02-23T13:22:48.731Z,3.73
2019-02-23T13:25:48.728Z,4.73
2019-02-23T13:29:04.289Z,3.93
2019-02-23T13:32:05.577Z,3.77
2019-02-23T13:35:11.035Z,3.63
2019-02-23T13:38:25.998Z,4.00
2019-02-23T13:41:40.881Z,3.80
2019-02-23T13:45:00.398Z,3.57
2019-02-23T13:48:05.995Z,3.57
2019-02-23T13:51:19.116Z,3.67
2019-02-23T13:54:38.664Z,3.63
2019-02-23T13:57:37.521Z,4.17
2019-02-23T14:00:44.538Z,3.77
2019-02-23T14:03:38.964Z,4.30
2019-02-23T14:06:35.126Z,3.80
2019-02-23T14:09:40.207Z,3.70
2019-02-23T14:12:37.084Z,3.13
2019-02-23T14:15:57.017Z,3.47
2019-02-23T14:19:07.425Z,3.70
2019-02-23T14:22:28.662Z,3.67
2019-02-23T14:25:32.901Z,3.00
2019-02-23T14:28:35.569Z,3.77
2019-02-23T14:31:54.344Z,3.77
2019-02-23T14:35:28.963Z,3.43
2019-02-23T14:38:53.447Z,3.67
2019-02-23T14:41:47.028Z,3.50
2019-02-23T14:44:40.481Z,2.90
2019-02-23T14:47:41.515Z,3.23
2019-02-23T14:50:56.817Z,3.67
2019-02-23T14:53:53.036Z,3.70
2019-02-23T14:57:07.819Z,3.77
2019-02-23T15:00:08.349Z,3.70
2019-02-23T15:03:11.104Z,3.97
2019-02-23T15:05:54.391Z,3.20
2019-02-23T15:08:39.744Z,3.33
2019-02-23T15:11:53.073Z,4.43
2019-02-23T15:14:58.813Z,3.20
2019-02-23T15:18:07.779Z,4.10
2019-02-23T15:21:09.484Z,3.03
2019-02-23T15:24:18.753Z,3.10
2019-02-23T15:27:23.147Z,3.37
2019-02-23T15:30:22.948Z,3.00
2019-02-23T15:33:31.239Z,3.43
2019-02-23T15:36:14.978Z,3.23
2019-02-23T15:39:23.180Z,3.57
2019-02-23T15:42:21.572Z,3.33
2019-02-23T15:45:50.411Z,3.10
2019-02-23T15:49:22.347Z,4.40
2019-02-23T15:51:51.625Z,4.07
2019-02-23T15:54:29.084Z,3.73
2019-02-23T15:57:01.871Z,3.43
2019-02-23T15:59:36.423Z,3.80
2019-02-23T16:02:05.728Z,4.03
2019-02-23T16:04:55.981Z,3.73
2019-02-23T16:07:28.645Z,4.00
2019-02-23T16:10:04.775Z,3.50
2019-02-23T16:12:35.354Z,4.50
2019-02-23T16:15:06.933Z,4.07
2019-02-23T16:17:36.183Z,4.70
2019-02-23T16:20:10.061Z,4.10
2019-02-23T16:22:39.458Z,4.37
2019-02-23T16:25:09.459Z,4.10
2019-02-23T16:27:56.054Z,3.10
2019-02-23T16:30:30.262Z,4.17
2019-02-23T16:32:59.396Z,4.10
2019-02-23T16:35:30.572Z,4.63
2019-02-23T16:37:59.574Z,4.63
2019-02-23T16:40:28.707Z,5.03
2019-02-23T16:43:01.142Z,4.50
2019-02-23T16:45:33.198Z,5.30
2019-02-23T16:48:04.759Z,3.87
2019-02-23T16:50:34.829Z,4.43
2019-02-23T16:53:05.229Z,4.00
2019-02-23T16:55:35.375Z,4.13
2019-02-23T16:58:06.888Z,3.30
2019-02-23T17:00:37.361Z,3.87
2019-02-23T17:03:07.558Z,3.67
2019-02-23T17:05:42.580Z,3.90
2019-02-23T17:08:12.262Z,4.10
2019-02-23T17:10:42.181Z,3.47
2019-02-23T17:13:12.142Z,3.20
2019-02-23T17:15:42.875Z,4.50
2019-02-23T17:18:14.516Z,3.23
2019-02-23T17:20:44.391Z,3.73
2019-02-23T17:23:17.808Z,3.37
2019-02-23T17:25:47.861Z,3.97
2019-02-23T17:28:19.921Z,3.00
2019-02-23T17:30:50.779Z,2.77
2019-02-23T17:33:22.037Z,3.50
2019-02-23T17:35:51.395Z,3.37
2019-02-23T17:38:25.187Z,3.53
2019-02-23T17:40:54.510Z,3.27
2019-02-23T17:43:25.830Z,3.60
2019-02-23T17:46:01.022Z,3.67
2019-02-23T17:51:02.573Z,2.97
2019-02-23T17:53:31.662Z,3.00
2019-02-23T17:56:10.451Z,2.57
2019-02-23T17:58:35.834Z,3.67
2019-02-23T18:01:05.197Z,3.50
2019-02-23T18:03:37.851Z,2.87
2019-02-23T18:06:10.136Z,2.50
2019-02-23T18:08:43.318Z,3.37
2019-02-23T18:11:29.844Z,3.40
2019-02-23T18:14:03.771Z,3.20
2019-02-23T18:16:33.141Z,3.50
2019-02-23T18:19:03.852Z,3.93
2019-02-23T18:21:33.080Z,2.83
2019-02-23T18:24:02.491Z,3.07
2019-02-23T18:26:31.631Z,3.30
2019-02-23T18:29:00.888Z,3.20
2019-02-23T18:31:35.079Z,3.40
2019-02-23T18:34:04.367Z,4.00
2019-02-23T18:36:33.473Z,3.20
2019-02-23T18:39:06.684Z,3.30
2019-02-23T18:41:33.588Z,3.03
2019-02-23T18:44:02.671Z,3.03
2019-02-23T18:46:31.836Z,3.70
2019-02-23T18:49:01.194Z,3.50
2019-02-23T18:51:33.781Z,3.40
2019-02-23T18:54:02.872Z,3.17
2019-02-23T18:56:32.086Z,2.83
2019-02-23T18:59:01.462Z,3.00
2019-02-23T19:01:30.842Z,2.80
2019-02-23T19:04:00.053Z,3.67
2019-02-23T19:06:29.148Z,4.00
2019-02-23T19:08:58.294Z,3.10
2019-02-23T19:11:27.412Z,3.40
2019-02-23T19:13:57.704Z,3.10
2019-02-23T19:16:29.427Z,3.60
2019-02-23T19:19:00.615Z,3.40
2019-02-23T19:21:32.490Z,3.00
2019-02-23T19:24:02.163Z,2.97
2019-02-23T19:26:37.983Z,2.77
2019-02-23T19:29:10.125Z,3.50
2019-02-23T19:31:39.225Z,2.67
2019-02-23T19:34:17.248Z,3.10
2019-02-23T19:36:48.798Z,2.53
2019-02-23T19:39:17.945Z,2.60
2019-02-23T19:41:48.232Z,3.50
2019-02-23T19:44:17.855Z,3.00
2019-02-23T19:47:27.758Z,2.80
2019-02-23T19:50:00.605Z,3.20
2019-02-23T19:52:29.686Z,3.30
2019-02-23T19:55:01.762Z,3.10
2019-02-23T19:57:31.667Z,2.90
2019-02-23T20:00:03.432Z,3.10
2019-02-23T20:02:32.682Z,3.30
2019-02-23T20:05:03.030Z,3.20
2019-02-23T20:07:35.109Z,3.20
2019-02-23T20:10:07.565Z,3.67
2019-02-23T20:12:38.104Z,3.60
2019-02-23T20:15:15.868Z,3.20
2019-02-23T20:17:45.216Z,2.87
2019-02-23T20:20:15.431Z,2.83
2019-02-23T20:22:46.164Z,2.67
2019-02-23T20:25:16.567Z,3.17
2019-02-23T20:27:49.006Z,3.03
2019-02-23T20:30:18.201Z,2.80
2019-02-23T20:32:47.308Z,3.00
2019-02-23T20:35:17.871Z,3.50
2019-02-23T20:37:48.370Z,3.17
2019-02-23T20:40:17.506Z,2.63
2019-02-23T20:42:46.891Z,3.10
2019-02-23T20:45:19.418Z,2.67
2019-02-23T20:47:48.608Z,3.57
2019-02-23T20:50:18.376Z,3.40
2019-02-23T20:52:48.956Z,3.80
2019-02-23T20:55:21.846Z,2.80
2019-02-23T20:57:54.057Z,2.60
2019-02-23T21:00:23.186Z,3.40
2019-02-23T21:02:53.407Z,3.13
2019-02-23T21:05:25.300Z,2.67
2019-02-23T21:07:57.185Z,3.10
2019-02-23T21:10:26.362Z,2.70
2019-02-23T21:12:55.686Z,3.40
2019-02-23T21:15:29.582Z,2.87
2019-02-23T21:17:58.770Z,3.00
2019-02-23T21:20:27.890Z,3.40
2019-02-23T21:22:59.900Z,2.67
2019-02-23T21:25:33.957Z,2.83
2019-02-23T21:28:06.738Z,3.03
2019-02-23T21:30:38.822Z,3.30
2019-02-23T21:33:08.716Z,2.50
2019-02-23T21:35:38.101Z,3.07
2019-02-23T21:38:07.912Z,2.90
2019-02-23T21:40:39.931Z,2.57
2019-02-23T21:43:09.381Z,3.13
2019-02-23T21:45:38.493Z,3.17
2019-02-23T21:48:09.339Z,3.00
2019-02-23T21:50:43.936Z,3.30
2019-02-23T21:53:13.936Z,3.30
2019-02-23T21:55:46.276Z,3.27
2019-02-23T21:58:15.405Z,3.77
2019-02-23T22:00:44.824Z,2.57
2019-02-23T22:03:17.513Z,3.77
2019-02-23T22:05:46.581Z,2.93
2019-02-23T22:08:25.889Z,3.10
2019-02-23T22:10:46.614Z,3.00
2019-02-23T22:13:15.723Z,2.90
2019-02-23T22:15:46.226Z,3.00
2019-02-23T22:18:19.569Z,3.37
2019-02-23T22:20:48.836Z,3.27
2019-02-23T22:23:18.215Z,3.77
2019-02-23T22:25:51.700Z,3.70
2019-02-23T22:28:21.940Z,3.47
2019-02-23T22:30:51.074Z,3.23
2019-02-23T22:33:20.197Z,3.60
2019-02-23T22:35:49.281Z,3.10
2019-02-23T22:38:18.361Z,3.27
2019-02-23T22:40:48.747Z,3.10
2019-02-23T22:43:19.473Z,4.53
2019-02-23T22:45:48.722Z,3.70
2019-02-23T22:48:19.131Z,3.30
2019-02-23T22:50:48.335Z,3.03
2019-02-23T22:53:20.593Z,2.93
2019-02-23T22:55:49.698Z,3.97
2019-02-23T22:58:18.802Z,3.20
2019-02-23T23:01:03.869Z,3.20
2019-02-23T23:03:33.227Z,3.50
2019-02-23T23:06:07.836Z,3.30
2019-02-23T23:08:38.873Z,2.50
2019-02-23T23:11:11.017Z,2.80
2019-02-23T23:13:46.726Z,3.17
2019-02-23T23:16:19.183Z,3.00
2019-02-23T23:18:48.280Z,3.30
2019-02-23T23:21:17.386Z,3.40
2019-02-23T23:23:46.675Z,3.50
2019-02-23T23:26:16.906Z,2.97
2019-02-23T23:28:47.047Z,3.33
2019-02-23T23:31:20.650Z,3.40
2019-02-23T23:33:49.737Z,3.90
2019-02-23T23:36:21.010Z,3.97
2019-02-23T23:38:53.854Z,5.00
2019-02-23T23:41:24.967Z,4.80
2019-02-23T23:43:55.098Z,4.60
2019-02-23T23:46:24.176Z,3.87
2019-02-23T23:48:53.274Z,3.60
2019-02-23T23:51:24.949Z,3.60
2019-02-23T23:54:00.112Z,3.27
2019-02-23T23:56:29.247Z,3.13
2019-02-23T23:58:58.311Z,3.13
